createdAt,value
2022-08-22T00:00:13.817Z,19.50
2022-08-22T00:02:43.198Z,20.90
2022-08-22T00:02:44.824Z,22.00
2022-08-22T00:02:45.887Z,21.20
2022-08-22T00:02:57.494Z,20.10
2022-08-22T00:03:15.737Z,19.50
2022-08-22T00:05:48.996Z,19.50
2022-08-22T00:08:24.690Z,19.50
2022-08-22T00:11:02.740Z,19.40
2022-08-22T00:13:37.293Z,19.40
2022-08-22T00:16:14.131Z,19.40
2022-08-22T00:18:49.732Z,19.30
2022-08-22T00:21:22.719Z,19.30
2022-08-22T00:24:09.737Z,19.30
2022-08-22T00:26:45.749Z,19.30
2022-08-22T00:29:18.919Z,19.20
2022-08-22T00:31:52.732Z,19.20
2022-08-22T00:34:31.183Z,19.20
2022-08-22T00:37:06.135Z,19.20
2022-08-22T00:39:42.189Z,19.10
2022-08-22T00:42:37.514Z,19.10
2022-08-22T00:45:38.363Z,19.10
2022-08-22T00:48:34.415Z,19.00
2022-08-22T00:51:23.675Z,19.00
2022-08-22T00:53:56.810Z,18.90
2022-08-22T00:57:09.365Z,19.00
2022-08-22T01:00:05.699Z,18.90
2022-08-22T01:02:51.859Z,18.80
2022-08-22T01:05:48.854Z,18.80
2022-08-22T01:08:30.952Z,18.80
2022-08-22T01:11:28.053Z,18.80
2022-08-22T01:14:12.245Z,18.80
2022-08-22T01:17:07.475Z,18.70
2022-08-22T01:20:23.675Z,18.70
2022-08-22T01:23:41.136Z,18.70
2022-08-22T01:26:47.752Z,18.70
2022-08-22T01:29:54.110Z,18.70
2022-08-22T01:33:19.731Z,18.60
2022-08-22T01:36:19.838Z,18.60
2022-08-22T01:39:21.907Z,18.60
2022-08-22T01:42:17.431Z,18.60
2022-08-22T01:45:05.005Z,18.60
2022-08-22T01:47:39.665Z,18.60
2022-08-22T01:50:18.509Z,18.60
2022-08-22T01:52:52.324Z,18.50
2022-08-22T01:55:31.945Z,18.60
2022-08-22T01:58:03.643Z,18.60
2022-08-22T02:00:35.922Z,18.60
2022-08-22T02:03:14.224Z,18.50
2022-08-22T02:05:51.258Z,18.50
2022-08-22T02:08:29.997Z,18.50
2022-08-22T02:11:04.455Z,18.40
2022-08-22T02:13:46.200Z,18.40
2022-08-22T02:16:21.205Z,18.40
2022-08-22T02:19:02.093Z,18.40
2022-08-22T02:21:42.226Z,18.40
2022-08-22T02:24:25.055Z,18.40
2022-08-22T02:27:08.007Z,18.30
2022-08-22T02:29:43.609Z,18.30
2022-08-22T02:32:22.281Z,18.20
2022-08-22T02:35:03.880Z,18.20
2022-08-22T02:37:38.643Z,18.20
2022-08-22T02:40:16.087Z,18.10
2022-08-22T02:42:49.486Z,18.10
2022-08-22T02:45:26.236Z,18.10
2022-08-22T02:48:02.137Z,18.10
2022-08-22T02:50:38.225Z,18.10
2022-08-22T02:53:13.000Z,18.10
2022-08-22T02:55:51.716Z,18.10
2022-08-22T02:58:25.543Z,18.10
2022-08-22T03:01:25.252Z,18.10
2022-08-22T03:04:14.880Z,18.00
2022-08-22T03:06:45.799Z,18.00
2022-08-22T03:09:28.051Z,18.00
2022-08-22T03:12:09.788Z,18.00
2022-08-22T03:14:45.583Z,17.90
2022-08-22T03:17:20.376Z,17.90
2022-08-22T03:19:57.257Z,17.90
2022-08-22T03:22:34.760Z,17.90
2022-08-22T03:25:11.152Z,17.90
2022-08-22T03:27:48.301Z,17.80
2022-08-22T03:30:21.511Z,17.80
2022-08-22T03:32:55.872Z,17.80
2022-08-22T03:35:32.276Z,17.80
2022-08-22T03:38:17.644Z,17.80
2022-08-22T03:41:10.453Z,17.80
2022-08-22T03:44:02.008Z,17.80
2022-08-22T03:46:57.659Z,17.80
2022-08-22T03:49:59.610Z,17.80
2022-08-22T03:53:15.241Z,17.80
2022-08-22T03:56:20.909Z,17.80
2022-08-22T03:59:18.349Z,17.80
2022-08-22T04:02:42.439Z,17.80
2022-08-22T04:05:27.772Z,17.70
2022-08-22T04:08:29.120Z,17.80
2022-08-22T04:11:34.303Z,17.70
2022-08-22T04:14:32.136Z,17.70
2022-08-22T04:17:30.888Z,17.60
2022-08-22T04:20:36.202Z,17.60
2022-08-22T04:23:28.573Z,17.60
2022-08-22T04:26:08.250Z,17.50
2022-08-22T04:28:45.701Z,17.50
2022-08-22T04:31:19.336Z,17.60
2022-08-22T04:33:53.448Z,17.60
2022-08-22T04:36:27.647Z,17.60
2022-08-22T04:39:01.264Z,17.50
2022-08-22T04:41:46.673Z,17.50
2022-08-22T04:44:18.500Z,17.40
2022-08-22T04:46:56.441Z,17.40
2022-08-22T04:49:33.756Z,17.40
2022-08-22T04:52:10.445Z,17.40
2022-08-22T04:54:54.654Z,17.30
2022-08-22T04:57:30.035Z,17.30
2022-08-22T05:00:01.276Z,17.30
2022-08-22T05:02:31.337Z,17.30
2022-08-22T05:05:05.547Z,17.30
2022-08-22T05:07:47.348Z,17.20
2022-08-22T05:10:24.273Z,17.20
2022-08-22T05:13:10.211Z,17.10
2022-08-22T05:15:41.769Z,17.10
2022-08-22T05:18:18.581Z,17.10
2022-08-22T05:20:49.589Z,17.10
2022-08-22T05:23:21.691Z,17.20
2022-08-22T05:25:54.310Z,17.20
2022-08-22T05:28:32.346Z,17.20
2022-08-22T05:31:02.523Z,17.30
2022-08-22T05:33:35.587Z,17.30
2022-08-22T05:36:09.425Z,17.30
2022-08-22T05:38:42.517Z,17.30
2022-08-22T05:41:17.865Z,17.30
2022-08-22T05:43:49.353Z,17.30
2022-08-22T05:46:21.558Z,17.30
2022-08-22T05:49:01.376Z,17.30
2022-08-22T05:51:39.261Z,17.30
2022-08-22T05:54:13.629Z,17.40
2022-08-22T05:56:45.662Z,17.40
2022-08-22T05:59:23.324Z,17.40
2022-08-22T06:02:01.713Z,17.50
2022-08-22T06:04:37.369Z,17.60
2022-08-22T06:07:15.679Z,17.60
2022-08-22T06:10:06.479Z,17.60
2022-08-22T06:12:39.453Z,17.70
2022-08-22T06:15:21.036Z,17.70
2022-08-22T06:17:51.488Z,17.80
2022-08-22T06:20:24.165Z,17.90
2022-08-22T06:22:55.694Z,18.00
2022-08-22T06:25:26.971Z,18.10
2022-08-22T06:27:57.789Z,18.10
2022-08-22T06:30:29.930Z,18.20
2022-08-22T06:33:06.794Z,18.30
2022-08-22T06:36:02.605Z,18.30
2022-08-22T06:38:33.620Z,18.40
2022-08-22T06:41:04.333Z,18.50
2022-08-22T06:43:38.910Z,18.50
2022-08-22T06:46:08.605Z,18.70
2022-08-22T06:48:38.268Z,18.70
2022-08-22T06:51:09.867Z,18.80
2022-08-22T06:53:48.103Z,18.90
2022-08-22T06:56:22.497Z,19.00
2022-08-22T06:58:55.816Z,19.10
2022-08-22T07:01:26.282Z,19.10
2022-08-22T07:03:55.761Z,19.20
2022-08-22T07:06:31.475Z,19.30
2022-08-22T07:08:59.859Z,19.40
2022-08-22T07:11:39.484Z,19.40
2022-08-22T07:14:12.278Z,19.50
2022-08-22T07:16:45.790Z,19.60
2022-08-22T07:19:25.451Z,19.60
2022-08-22T07:21:56.467Z,19.60
2022-08-22T07:24:28.315Z,19.70
2022-08-22T07:27:09.044Z,19.70
2022-08-22T07:29:47.938Z,19.80
2022-08-22T07:32:19.571Z,19.80
2022-08-22T07:35:02.117Z,19.80
2022-08-22T07:37:47.251Z,19.80
2022-08-22T07:40:23.303Z,19.80
2022-08-22T07:42:59.160Z,19.90
2022-08-22T07:45:36.519Z,19.90
2022-08-22T07:48:25.536Z,19.90
2022-08-22T07:51:07.981Z,19.90
2022-08-22T07:53:45.304Z,19.90
2022-08-22T07:56:17.879Z,20.00
2022-08-22T07:58:49.064Z,20.00
2022-08-22T08:01:21.281Z,20.00
2022-08-22T08:03:55.944Z,20.00
2022-08-22T08:06:26.089Z,20.00
2022-08-22T08:08:57.103Z,20.00
2022-08-22T08:11:28.651Z,20.10
2022-08-22T08:14:01.875Z,20.10
2022-08-22T08:16:34.528Z,20.10
2022-08-22T08:19:04.154Z,20.20
2022-08-22T08:21:38.761Z,20.30
2022-08-22T08:24:16.748Z,20.30
2022-08-22T08:27:03.857Z,20.30
2022-08-22T08:29:33.430Z,20.40
2022-08-22T08:32:02.457Z,20.50
2022-08-22T08:34:34.484Z,20.60
2022-08-22T08:37:07.539Z,20.70
2022-08-22T08:39:40.980Z,20.70
2022-08-22T08:42:56.340Z,20.80
2022-08-22T08:45:59.211Z,20.80
2022-08-22T08:48:54.826Z,20.90
2022-08-22T08:51:43.624Z,21.00
2022-08-22T08:54:31.147Z,21.10
2022-08-22T08:57:08.761Z,21.30
2022-08-22T08:59:45.931Z,21.40
2022-08-22T09:02:34.991Z,21.60
2022-08-22T09:05:25.408Z,21.70
2022-08-22T09:08:25.453Z,21.80
2022-08-22T09:11:12.068Z,21.90
2022-08-22T09:13:56.353Z,22.00
2022-08-22T09:16:51.606Z,22.20
2022-08-22T09:19:48.093Z,22.30
2022-08-22T09:22:50.565Z,22.30
2022-08-22T09:25:25.082Z,22.50
2022-08-22T09:28:01.164Z,22.60
2022-08-22T09:30:54.214Z,22.80
2022-08-22T09:33:29.925Z,23.00
2022-08-22T09:36:05.183Z,23.20
2022-08-22T09:38:47.927Z,23.40
2022-08-22T09:41:34.963Z,23.50
2022-08-22T09:44:14.245Z,23.60
2022-08-22T09:46:59.414Z,23.60
2022-08-22T09:49:41.679Z,23.60
2022-08-22T09:52:34.640Z,23.60
2022-08-22T09:55:16.215Z,23.70
2022-08-22T09:57:53.328Z,23.80
2022-08-22T10:00:26.777Z,23.80
2022-08-22T10:03:15.627Z,23.80
2022-08-22T10:05:48.101Z,23.90
2022-08-22T10:08:31.167Z,23.90
2022-08-22T10:11:28.880Z,23.90
2022-08-22T10:14:03.109Z,23.90
2022-08-22T10:16:58.610Z,23.90
2022-08-22T10:19:34.061Z,24.00
2022-08-22T10:22:29.873Z,24.00
2022-08-22T10:25:24.025Z,24.10
2022-08-22T10:28:10.658Z,24.20
2022-08-22T10:31:07.233Z,24.20
2022-08-22T10:33:44.395Z,24.50
2022-08-22T10:36:17.860Z,24.80
2022-08-22T10:38:49.561Z,25.00
2022-08-22T10:41:29.464Z,25.20
2022-08-22T10:44:06.386Z,25.30
2022-08-22T10:46:42.175Z,25.40
2022-08-22T10:49:17.953Z,25.60
2022-08-22T10:51:53.715Z,25.80
2022-08-22T10:54:43.612Z,25.80
2022-08-22T10:57:44.170Z,25.70
2022-08-22T11:00:31.957Z,25.50
2022-08-22T11:03:15.836Z,25.50
2022-08-22T11:05:52.111Z,25.50
2022-08-22T11:08:44.225Z,25.90
2022-08-22T11:11:25.711Z,26.50
2022-08-22T11:14:36.218Z,26.80
2022-08-22T11:17:28.867Z,27.00
2022-08-22T11:20:19.600Z,27.10
2022-08-22T11:23:08.605Z,27.00
2022-08-22T11:25:57.402Z,27.00
2022-08-22T11:28:41.098Z,27.00
2022-08-22T11:31:22.589Z,27.00
2022-08-22T11:33:56.540Z,27.20
2022-08-22T11:36:36.898Z,27.50
2022-08-22T11:39:18.175Z,27.80
2022-08-22T11:41:58.958Z,28.10
2022-08-22T11:44:34.560Z,28.40
2022-08-22T11:47:15.981Z,28.40
2022-08-22T11:49:54.270Z,28.40
2022-08-22T11:52:30.684Z,28.40
2022-08-22T11:55:17.088Z,28.40
2022-08-22T11:57:50.754Z,28.40
2022-08-22T12:00:29.088Z,28.70
2022-08-22T12:03:18.977Z,29.10
2022-08-22T12:05:56.139Z,29.50
2022-08-22T12:09:04.457Z,29.50
2022-08-22T12:11:42.363Z,29.50
2022-08-22T12:14:27.056Z,29.50
2022-08-22T12:17:10.621Z,29.60
2022-08-22T12:20:15.179Z,29.80
2022-08-22T12:23:10.154Z,29.90
2022-08-22T12:26:11.041Z,30.10
2022-08-22T12:28:50.537Z,29.90
2022-08-22T12:31:35.158Z,29.70
2022-08-22T12:34:20.020Z,29.40
2022-08-22T12:37:04.720Z,29.50
2022-08-22T12:39:58.362Z,29.30
2022-08-22T12:42:49.572Z,29.30
2022-08-22T12:45:43.030Z,29.00
2022-08-22T12:48:26.690Z,28.80
2022-08-22T12:51:02.258Z,28.80
2022-08-22T12:54:10.427Z,28.70
2022-08-22T12:56:47.394Z,28.60
2022-08-22T12:59:24.964Z,28.80
2022-08-22T13:01:56.755Z,28.90
2022-08-22T13:04:33.503Z,29.10
2022-08-22T13:07:17.589Z,29.10
2022-08-22T13:09:52.378Z,29.10
2022-08-22T13:12:27.754Z,29.10
2022-08-22T13:15:00.088Z,29.10
2022-08-22T13:17:29.244Z,29.20
2022-08-22T13:20:09.174Z,29.30
2022-08-22T13:22:45.357Z,29.40
2022-08-22T13:25:25.450Z,29.40
2022-08-22T13:27:59.315Z,29.40
2022-08-22T13:30:33.388Z,29.50
2022-08-22T13:33:09.859Z,29.40
2022-08-22T13:35:51.776Z,29.30
2022-08-22T13:38:25.738Z,29.20
2022-08-22T13:40:57.109Z,29.00
2022-08-22T13:43:28.358Z,28.90
2022-08-22T13:46:02.026Z,28.70
2022-08-22T13:48:46.748Z,28.60
2022-08-22T13:51:25.081Z,28.60
2022-08-22T13:54:00.814Z,28.50
2022-08-22T13:56:36.788Z,28.30
2022-08-22T13:59:08.232Z,28.20
2022-08-22T14:01:50.677Z,28.10
2022-08-22T14:04:34.843Z,28.00
2022-08-22T14:07:31.277Z,27.90
2022-08-22T14:10:04.158Z,27.80
2022-08-22T14:12:50.062Z,27.70
2022-08-22T14:15:25.853Z,27.70
2022-08-22T14:18:10.369Z,27.70
2022-08-22T14:20:47.894Z,27.70
2022-08-22T14:23:34.438Z,27.80
2022-08-22T14:26:03.130Z,27.80
2022-08-22T14:28:35.808Z,27.70
2022-08-22T14:31:13.316Z,27.60
2022-08-22T14:33:48.146Z,27.60
2022-08-22T14:36:19.966Z,27.50
2022-08-22T14:38:53.767Z,27.50
2022-08-22T14:41:52.283Z,27.40
2022-08-22T14:44:26.571Z,27.40
2022-08-22T14:46:58.808Z,27.40
2022-08-22T14:49:35.997Z,27.40
2022-08-22T14:52:09.548Z,27.40
2022-08-22T14:54:40.407Z,27.40
2022-08-22T14:57:19.936Z,27.50
2022-08-22T14:59:52.279Z,27.60
2022-08-22T15:02:27.789Z,27.60
2022-08-22T15:04:58.347Z,27.60
2022-08-22T15:07:29.187Z,27.60
2022-08-22T15:10:06.164Z,27.60
2022-08-22T15:12:38.749Z,27.50
2022-08-22T15:15:11.500Z,27.60
2022-08-22T15:17:44.733Z,27.70
2022-08-22T15:20:28.133Z,27.80
2022-08-22T15:23:00.055Z,28.00
2022-08-22T15:25:35.439Z,28.00
2022-08-22T15:28:14.214Z,28.00
2022-08-22T15:30:49.019Z,27.90
2022-08-22T15:33:26.297Z,27.80
2022-08-22T15:36:12.504Z,27.70
2022-08-22T15:38:48.287Z,27.60
2022-08-22T15:41:45.182Z,27.40
2022-08-22T15:44:30.870Z,27.30
2022-08-22T15:47:23.672Z,27.30
2022-08-22T15:49:58.237Z,27.20
2022-08-22T15:52:30.040Z,27.10
2022-08-22T15:55:18.019Z,27.10
2022-08-22T15:58:07.420Z,27.00
2022-08-22T16:00:43.429Z,27.20
2022-08-22T16:03:24.747Z,27.20
2022-08-22T16:05:57.977Z,27.30
2022-08-22T16:08:32.997Z,27.20
2022-08-22T16:11:29.700Z,27.20
2022-08-22T16:14:24.974Z,27.00
2022-08-22T16:16:59.768Z,26.90
2022-08-22T16:19:29.200Z,26.90
2022-08-22T16:22:18.219Z,26.90
2022-08-22T16:25:10.627Z,26.90
2022-08-22T16:27:56.562Z,26.90
2022-08-22T16:30:36.747Z,26.90
2022-08-22T16:33:07.106Z,26.80
2022-08-22T16:36:25.844Z,26.70
2022-08-22T16:38:58.117Z,26.60
2022-08-22T16:41:33.692Z,26.50
2022-08-22T16:44:24.108Z,26.40
2022-08-22T16:46:55.538Z,26.30
2022-08-22T16:49:29.904Z,26.30
2022-08-22T16:52:35.289Z,26.30
2022-08-22T16:55:06.024Z,26.20
2022-08-22T16:58:05.094Z,26.20
2022-08-22T17:00:42.997Z,26.10
2022-08-22T17:03:21.560Z,26.10
2022-08-22T17:06:00.504Z,26.00
2022-08-22T17:08:50.198Z,26.00
2022-08-22T17:11:31.292Z,25.90
2022-08-22T17:14:17.958Z,25.90
2022-08-22T17:17:02.700Z,25.80
2022-08-22T17:19:46.640Z,25.70
2022-08-22T17:22:29.158Z,25.70
2022-08-22T17:25:13.734Z,25.60
2022-08-22T17:27:44.977Z,25.50
2022-08-22T17:30:15.936Z,25.50
2022-08-22T17:33:00.312Z,25.50
2022-08-22T17:35:45.492Z,25.50
2022-08-22T17:38:24.422Z,25.40
2022-08-22T17:41:01.086Z,25.30
2022-08-22T17:43:48.472Z,25.30
2022-08-22T17:46:32.605Z,25.30
2022-08-22T17:49:10.381Z,25.20
2022-08-22T17:51:49.245Z,25.20
2022-08-22T17:54:22.453Z,25.20
2022-08-22T17:57:05.370Z,25.10
2022-08-22T17:59:41.110Z,25.00
2022-08-22T18:02:16.473Z,25.00
2022-08-22T18:04:52.297Z,24.90
2022-08-22T18:07:33.983Z,24.90
2022-08-22T18:10:13.196Z,24.80
2022-08-22T18:12:47.282Z,24.80
2022-08-22T18:15:24.292Z,24.70
2022-08-22T18:18:01.251Z,24.70
2022-08-22T18:20:34.683Z,24.70
2022-08-22T18:23:21.342Z,24.60
2022-08-22T18:26:14.777Z,24.60
2022-08-22T18:28:50.062Z,24.50
2022-08-22T18:31:38.147Z,24.40
2022-08-22T18:34:16.306Z,24.30
2022-08-22T18:36:55.340Z,24.30
2022-08-22T18:39:29.520Z,24.20
2022-08-22T18:42:04.702Z,24.10
2022-08-22T18:44:38.697Z,24.10
2022-08-22T18:47:15.190Z,24.00
2022-08-22T18:49:54.136Z,24.00
2022-08-22T18:52:40.866Z,23.90
2022-08-22T18:55:42.629Z,23.80
2022-08-22T18:58:33.523Z,23.70
2022-08-22T19:01:19.377Z,23.70
2022-08-22T19:04:12.967Z,23.60
2022-08-22T19:06:56.759Z,23.50
2022-08-22T19:09:45.697Z,23.40
2022-08-22T19:12:31.408Z,23.40
2022-08-22T19:15:29.862Z,23.30
2022-08-22T19:18:24.929Z,23.20
2022-08-22T19:21:33.041Z,23.20
2022-08-22T19:24:02.608Z,23.20
2022-08-22T19:26:38.097Z,23.10
2022-08-22T19:29:46.633Z,23.00
2022-08-22T19:32:55.617Z,23.00
2022-08-22T19:35:37.418Z,23.00
2022-08-22T19:38:07.682Z,22.90
2022-08-22T19:40:58.320Z,22.90
2022-08-22T19:43:33.626Z,22.80
2022-08-22T19:46:15.252Z,22.70
2022-08-22T19:48:54.965Z,22.70
2022-08-22T19:51:29.318Z,22.70
2022-08-22T19:54:17.139Z,22.60
2022-08-22T19:56:59.927Z,22.60
2022-08-22T19:59:44.406Z,22.60
2022-08-22T20:02:32.064Z,22.50
2022-08-22T20:05:27.702Z,22.50
2022-08-22T20:08:14.926Z,22.40
2022-08-22T20:10:57.184Z,22.40
2022-08-22T20:13:28.104Z,22.40
2022-08-22T20:16:17.914Z,22.30
2022-08-22T20:19:19.741Z,22.30
2022-08-22T20:21:58.151Z,22.30
2022-08-22T20:24:36.535Z,22.30
2022-08-22T20:27:15.585Z,22.30
2022-08-22T20:29:50.931Z,22.20
2022-08-22T20:32:23.161Z,22.30
2022-08-22T20:34:58.390Z,22.20
2022-08-22T20:38:03.352Z,22.20
2022-08-22T20:40:54.662Z,22.10
2022-08-22T20:43:28.621Z,22.10
2022-08-22T20:46:12.984Z,22.00
2022-08-22T20:48:44.682Z,22.00
2022-08-22T20:51:17.470Z,22.00
2022-08-22T20:53:53.941Z,21.90
2022-08-22T20:56:37.714Z,21.90
2022-08-22T20:59:20.400Z,21.90
2022-08-22T21:01:52.668Z,21.90
2022-08-22T21:04:23.109Z,21.90
2022-08-22T21:07:00.870Z,21.90
2022-08-22T21:09:47.225Z,21.80
2022-08-22T21:12:16.267Z,21.80
2022-08-22T21:14:47.165Z,21.80
2022-08-22T21:17:25.367Z,21.80
2022-08-22T21:19:54.565Z,21.80
2022-08-22T21:22:32.423Z,21.90
2022-08-22T21:25:02.067Z,21.90
2022-08-22T21:27:33.325Z,21.80
2022-08-22T21:30:06.115Z,21.80
2022-08-22T21:32:37.895Z,21.80
2022-08-22T21:35:08.714Z,21.80
2022-08-22T21:37:41.744Z,21.80
2022-08-22T21:40:17.397Z,21.80
2022-08-22T21:43:01.913Z,21.80
2022-08-22T21:45:42.041Z,21.80
2022-08-22T21:48:33.539Z,21.80
2022-08-22T21:51:25.080Z,21.80
2022-08-22T21:54:29.142Z,21.80
2022-08-22T21:56:59.967Z,21.80
2022-08-22T21:59:50.642Z,21.80
2022-08-22T22:02:44.109Z,21.80
2022-08-22T22:05:14.803Z,21.80
2022-08-22T22:07:46.604Z,21.80
2022-08-22T22:10:19.608Z,21.70
2022-08-22T22:12:51.543Z,21.80
2022-08-22T22:15:25.085Z,21.70
2022-08-22T22:17:55.337Z,21.70
2022-08-22T22:20:26.258Z,21.70
2022-08-22T22:22:54.999Z,21.70
2022-08-22T22:25:39.186Z,21.70
2022-08-22T22:28:13.998Z,21.70
2022-08-22T22:30:43.349Z,21.70
2022-08-22T22:33:11.890Z,21.70
2022-08-22T22:35:41.929Z,21.60
2022-08-22T22:38:10.423Z,21.60
2022-08-22T22:40:41.345Z,21.60
2022-08-22T22:43:10.170Z,21.50
2022-08-22T22:45:38.710Z,21.50
2022-08-22T22:48:08.214Z,21.50
2022-08-22T22:50:40.711Z,21.50
2022-08-22T22:53:09.657Z,21.40
2022-08-22T22:55:41.605Z,21.40
2022-08-22T22:58:10.706Z,21.30
2022-08-22T23:00:39.109Z,21.30
2022-08-22T23:03:08.407Z,21.30
2022-08-22T23:05:36.989Z,21.20
2022-08-22T23:08:05.918Z,21.20
2022-08-22T23:10:34.592Z,21.10
2022-08-22T23:13:06.701Z,21.10
2022-08-22T23:15:34.974Z,21.10
2022-08-22T23:18:03.300Z,21.10
2022-08-22T23:20:31.658Z,21.10
2022-08-22T23:23:00.684Z,21.00
2022-08-22T23:25:29.044Z,21.00
2022-08-22T23:28:20.938Z,20.90
2022-08-22T23:30:49.424Z,20.90
2022-08-22T23:33:17.699Z,20.90
2022-08-22T23:35:46.064Z,20.90
2022-08-22T23:58:28.344Z,20.60
